Data for 10/30/2010

Time Sea-Level Adjusted Pressure Absolute Pressure Temperature Relative Humidity Dew Point   
(mb) (inHg) (mb) (inHg) (C) (F) (%) (C) (F)
00:05 1018 30.06 848 25.04 6.1 43 75 2.1 35.8
00:10 1018 30.06 848 25.04 6 42.9 74 1.8 35.2
00:15 1018 30.06 848 25.04 6 42.8 74 1.8 35.2
00:20 1018 30.06 848 25.04 6 42.8 75 1.9 35.5
00:25 1018 30.06 847 25.01 6 42.7 74 1.7 35.1
00:30 1018 30.06 847 25.01 6 42.7 74 1.7 35.1
00:35 1018 30.06 847 25.01 6 42.7 76 2 35.6
00:40 1018 30.06 847 25.01 5.8 42.5 76 2 35.6
00:45 1018 30.06 847 25.01 5.8 42.4 76 1.9 35.4
00:50 1018 30.06 847 25.01 5.8 42.4 75 1.7 35.1
00:55 1018 30.06 847 25.01 5.8 42.4 76 1.9 35.4
01:00 1018 30.06 847 25.01 5.7 42.3 77 2 35.5
01:05 1018 30.06 847 25.01 5.6 42.1 77 1.9 35.4
01:10 1018 30.06 847 25.01 5.5 42 76 1.7 35
01:15 1018 30.06 847 25.01 5.6 42 76 1.6 35
01:20 1018 30.06 847 25.01 5.6 42 76 1.7 35.1
01:25 1018 30.06 847 25.01 5.5 41.8 76 1.6 34.9
01:30 1018 30.06 847 25.01 5.4 41.7 77 1.6 34.9
01:35 1018 30.06 847 25.01 5.3 41.6 77 1.5 34.8
01:40 1018 30.06 847 25.01 5.3 41.6 75 1.3 34.4
01:45 1018 30.06 847 25.01 5.4 41.7 74 1.2 34.1
01:50 1018 30.06 847 25.01 5.5 41.8 74 1.2 34.1
01:55 1018 30.06 847 25.01 5.4 41.7 74 1.2 34.1
02:00 1018 30.06 847 25.01 5.3 41.5 75 1.2 34.2
02:05 1018 30.06 847 25.01 5.2 41.4 74 1 33.8
02:10 1018 30.06 847 25.01 5.2 41.3 74 0.9 33.7
02:15 1018 30.06 847 25.01 5.3 41.5 73 0.9 33.5
02:20 1018 30.06 847 25.01 5.2 41.3 73 0.8 33.5
02:25 1018 30.06 847 25.01 5.2 41.3 73 0.7 33.3
02:30 1018 30.06 847 25.01 5.1 41.2 73 0.8 33.4
02:35 1018 30.06 847 25.01 5.1 41.2 72 0.5 32.8
02:40 1018 30.06 847 25.01 5.1 41.2 72 0.5 32.9
02:45 1018 30.06 847 25.01 5 41 72 0.4 32.8
02:50 1018 30.06 847 25.01 5 40.9 74 0.7 33.3
02:55 1018 30.06 847 25.01 4.7 40.5 76 1 33.7
03:00 1018 30.06 847 25.01 4.6 40.3 76 0.8 33.4
03:05 1018 30.06 847 25.01 4.6 40.2 77 0.8 33.5
03:10 1018 30.06 847 25.01 4.4 40 76 0.6 33.2
03:15 1018 30.06 847 25.01 4.5 40.1 76 0.6 33
03:20 1018 30.06 847 25.01 4.7 40.4 73 0.4 32.6
03:25 1018 30.06 847 25.01 4.8 40.6 73 0.4 32.6
03:30 1018 30.06 847 25.01 4.7 40.4 75 0.6 33.2
03:35 1018 30.06 847 25.01 4.3 39.8 77 0.6 33.1
03:40 1018 30.06 847 25.01 4.1 39.4 76 0.3 32.5
03:45 1018 30.06 847 25.01 3.9 39 77 0.2 32.4
03:50 1018 30.06 847 25.01 3.8 38.8 78 0.3 32.5
03:55 1018 30.06 847 25.01 3.6 38.4 78 0 32.1
04:00 1018 30.06 847 25.01 3.7 38.6 75 -0.3 31.5
04:05 1018 30.06 847 25.01 3.7 38.7 76 -0 32
04:10 1018 30.06 847 25.01 3.8 38.8 75 -0.2 31.6
04:15 1018 30.06 847 25.01 3.9 39 75 -0.2 31.6
04:20 1018 30.06 847 25.01 3.6 38.5 76 -0.2 31.6
04:25 1018 30.06 847 25.01 3.3 37.9 79 -0 32
04:30 1018 30.06 847 25.01 2.6 36.7 80 -0.4 31.2
04:35 1018 30.06 847 25.01 2.5 36.4 80 -0.7 30.7
04:40 1018 30.06 847 25.01 2.2 36 81 -0.6 30.9
04:45 1018 30.06 847 25.01 1.9 35.5 81 -1 30.1
04:50 1018 30.06 847 25.01 2.1 35.8 79 -1.1 30
04:55 1017 30.03 847 25.01 2.1 35.8 79 -1.1 30.1
05:00 1017 30.03 847 25.01 2 35.6 80 -1.1 30.1
05:05 1017 30.03 847 25.01 1.9 35.4 81 -1.1 30
05:10 1017 30.03 847 25.01 2.1 35.7 79 -1.2 29.9
05:15 1017 30.03 847 25.01 2.1 35.9 79 -1.1 30
05:20 1017 30.03 847 25.01 2.2 36 79 -1 30.2
05:25 1017 30.03 847 25.01 2.2 35.9 80 -0.9 30.3
05:30 1017 30.03 847 25.01 2 35.6 81 -1 30.3
05:35 1017 30.03 846 24.98 1.9 35.4 81 -1 30.2
05:40 1017 30.03 846 24.98 2 35.6 80 -1.1 30
05:45 1017 30.03 846 24.98 2 35.6 80 -1.1 30.1
05:50 1017 30.03 846 24.98 2 35.6 79 -1.2 29.9
05:55 1017 30.03 846 24.98 2 35.7 79 -1.2 29.8
06:00 1017 30.03 846 24.98 2 35.6 78 -1.4 29.5
06:05 1017 30.03 846 24.98 1.9 35.5 79 -1.4 29.5
06:10 1017 30.03 846 24.98 1.9 35.3 79 -1.4 29.4
06:15 1017 30.03 846 24.98 1.7 35.1 79 -1.5 29.3
06:20 1017 30.03 846 24.98 1.7 35.1 79 -1.5 29.3
06:25 1017 30.03 846 24.98 1.7 35.1 79 -1.5 29.2
06:30 1017 30.03 846 24.98 1.7 35 80 -1.5 29.3
06:35 1017 30.03 846 24.98 1.6 34.9 80 -1.5 29.2
06:40 1017 30.03 846 24.98 1.7 35.1 78 -1.7 29
06:45 1017 30.03 846 24.98 1.8 35.2 78 -1.6 29.1
06:50 1017 30.03 846 24.98 1.8 35.2 79 -1.5 29.3
06:55 1017 30.03 846 24.98 2 35.6 78 -1.5 29.4
07:00 1017 30.03 846 24.98 1.8 35.3 78 -1.5 29.2
07:05 1017 30.03 846 24.98 1.7 35.1 79 -1.5 29.3
07:10 1017 30.03 846 24.98 1.6 35 79 -1.6 29.1
07:15 1017 30.03 846 24.98 1.6 34.8 80 -1.6 29.2
07:20 1017 30.03 846 24.98 1.5 34.7 80 -1.6 29.1
07:25 1017 30.03 846 24.98 1.5 34.7 80 -1.6 29.2
07:30 1016 30 846 24.98 1.5 34.6 80 -1.7 29
07:35 1016 30 846 24.98 1.5 34.7 80 -1.6 29.2
07:40 1016 30 846 24.98 1.7 35.1 79 -1.6 29.1
07:45 1016 30 846 24.98 1.8 35.2 78 -1.7 29
07:50 1016 30 846 24.98 1.8 35.3 78 -1.6 29
07:55 1016 30 845 24.95 1.8 35.3 78 -1.7 29
08:00 1016 30 845 24.95 1.7 35 78 -1.8 28.8
08:05 1016 30 845 24.95 1.6 34.9 77 -2 28.4
08:10 1016 30 845 24.95 1.7 35 77 -2 28.5
08:15 1016 30 845 24.95 1.8 35.3 76 -2 28.5
08:20 1016 30 845 24.95 1.8 35.2 76 -2 28.4
08:25 1016 30 845 24.95 1.8 35.3 75 -2.1 28.3
08:30 1016 30 845 24.95 2.1 35.8 74 -2 28.4
08:35 1016 30 845 24.95 2.5 36.4 72 -2 28.4
08:40 1016 30 845 24.95 2.5 36.5 72 -2 28.5
08:45 1016 30 845 24.95 2.7 36.8 71 -2 28.4
08:50 1016 30 845 24.95 2.5 36.5 72 -2 28.3
08:55 1016 30 845 24.95 2.6 36.6 71 -2.2 28.1
09:00 1016 30 845 24.95 3.1 37.6 69 -2 28.5
09:05 1016 30 845 24.95 3.5 38.3 68 -1.8 28.7
09:10 1016 30 845 24.95 3.7 38.7 67 -1.9 28.6
09:15 1016 30 845 24.95 4.1 39.4 65 -1.8 28.7
09:20 1016 30 845 24.95 4.3 39.8 64 -1.8 28.7
09:25 1016 30 845 24.95 4.2 39.5 64 -1.9 28.5
09:30 1016 30 845 24.95 4.3 39.7 64 -2 28.4
09:35 1016 30 845 24.95 4.8 40.6 63 -1.7 28.9
09:40 1016 30 845 24.95 5 41 64 -1.3 29.7
09:45 1016 30 845 24.95 5 41.1 63 -1.4 29.5
09:50 1016 30 845 24.95 5 40.9 64 -1.3 29.7
09:55 1016 30 845 24.95 5.4 41.8 62 -1.3 29.7
10:00 1016 30 845 24.95 6.1 43 61 -0.7 30.7
10:05 1016 30 845 24.95 6.4 43.4 61 -0.5 31
10:10 1016 30 845 24.95 6.6 43.9 63 0 32
10:15 1016 30 845 24.95 5.7 42.2 66 -0.1 31.8
10:20 1016 30 845 24.95 5.2 41.4 65 -0.9 30.4
10:25 1016 30 845 24.95 4.9 40.8 69 -0.3 31.4
10:30 1016 30 845 24.95 4.4 39.9 74 0.2 32.4
10:35 1016 30 845 24.95 4.7 40.5 71 -0.1 31.8
10:40 1016 30 845 24.95 5.3 41.6 71 0.6 33
10:45 1016 30 845 24.95 5.5 41.8 68 0 32.1
10:50 1016 30 845 24.95 6.4 43.5 64 0.1 32.2
10:55 1016 30 845 24.95 6.3 43.3 67 0.6 33
11:00 1016 30 845 24.95 6.8 44.3 61 -0.2 31.7
11:05 1016 30 845 24.95 6.6 43.9 64 0.3 32.6
11:10 1016 30 845 24.95 6.8 44.3 63 0.2 32.4
11:15 1016 30 845 24.95 7.1 44.8 61 0.1 32.1
11:20 1016 30 845 24.95 7.6 45.7 59 0.2 32.3
11:25 1016 30 845 24.95 7.2 44.9 62 0.4 32.6
11:30 1016 30 845 24.95 6.5 43.7 63 -0.1 31.8
11:35 1015 29.97 845 24.95 7.9 46.1 57 -0 32
11:40 1015 29.97 844 24.92 7.1 44.8 63 0.5 32.9
11:45 1015 29.97 844 24.92 7.3 45.2 57 -0.5 31.1
11:50 1015 29.97 844 24.92 7.7 45.8 59 0.3 32.5
11:55 1015 29.97 844 24.92 7.6 45.6 58 -0 31.9
12:00 1015 29.97 844 24.92 8.4 47.1 56 0.1 32.2
12:05 1015 29.97 844 24.92 8.8 47.9 55 0.4 32.7
12:10 1015 29.97 844 24.92 8.3 46.9 57 0.4 32.8
12:15 1015 29.97 844 24.92 7.8 46 60 0.5 32.9
12:20 1015 29.97 844 24.92 8.5 47.3 54 -0.1 31.8
12:25 1015 29.97 844 24.92 9.3 48.7 52 -0 32
12:30 1015 29.97 844 24.92 9.4 48.8 54 0.4 32.8
12:35 1015 29.97 844 24.92 9.1 48.3 54 0.4 32.7
12:40 1015 29.97 844 24.92 9.6 49.2 52 0.3 32.6
12:45 1015 29.97 844 24.92 9.8 49.6 52 0.5 32.9
12:50 1015 29.97 844 24.92 10.2 50.3 51 0.6 33.1
12:55 1015 29.97 844 24.92 9.2 48.5 56 0.8 33.5
13:00 1014 29.94 844 24.92 9 48.2 55 0.5 32.9
13:05 1014 29.94 844 24.92 9.5 49.1 54 0.8 33.4
13:10 1014 29.94 843 24.89 9.6 49.3 54 0.7 33.2
13:15 1014 29.94 843 24.89 9.5 49 54 0.7 33.2
13:20 1014 29.94 843 24.89 9.5 49 53 0.5 32.8
13:25 1014 29.94 843 24.89 10.1 50.1 52 0.7 33.3
13:30 1014 29.94 843 24.89 10.6 51 51 0.8 33.5
13:35 1014 29.94 843 24.89 10.4 50.7 53 1.3 34.4
13:40 1014 29.94 843 24.89 10.2 50.3 52 0.9 33.6
13:45 1014 29.94 843 24.89 10.5 50.9 52 1.1 33.9
13:50 1014 29.94 843 24.89 10.1 50.2 56 1.8 35.2
13:55 1013 29.91 843 24.89 9 48.3 57 1 33.8
14:00 1013 29.91 843 24.89 9.3 48.7 56 1 33.7
14:05 1013 29.91 842 24.86 9.4 48.9 56 1.2 34.1
14:10 1013 29.91 842 24.86 9.6 49.4 55 1.1 34.1
14:15 1013 29.91 842 24.86 9.8 49.6 55 1.3 34.4
14:20 1013 29.91 842 24.86 10.1 50.1 54 1.2 34.1
14:25 1013 29.91 842 24.86 10 49.9 55 1.4 34.5
14:30 1013 29.91 842 24.86 10.1 50.1 54 1.2 34.2
14:35 1013 29.91 842 24.86 9.6 49.2 58 1.7 35
14:40 1013 29.91 842 24.86 9.1 48.4 58 1.2 34.2
14:45 1013 29.91 842 24.86 9.4 48.8 56 1.1 34
14:50 1013 29.91 842 24.86 9.7 49.4 55 1.2 34.1
14:55 1013 29.91 842 24.86 9.8 49.7 57 1.7 35
15:00 1013 29.91 842 24.86 9.1 48.3 58 1.4 34.4
15:05 1013 29.91 842 24.86 9 48.2 58 1.1 34
15:10 1013 29.91 842 24.86 9 48.1 59 1.4 34.5
15:15 1013 29.91 842 24.86 9.4 49 57 1.5 34.6
15:20 1013 29.91 842 24.86 9.6 49.2 57 1.5 34.7
15:25 1013 29.91 842 24.86 9.9 49.9 55 1.4 34.5
15:30 1013 29.91 842 24.86 10 50 55 1.6 34.8
15:35 1013 29.91 842 24.86 10.2 50.4 55 1.6 35
15:40 1013 29.91 842 24.86 10.3 50.5 55 1.8 35.2
15:45 1013 29.91 842 24.86 9.7 49.5 56 1.4 34.5
15:50 1013 29.91 842 24.86 9.6 49.2 52 0.2 32.3
15:55 1013 29.91 842 24.86 9.9 49.8 49 -0.4 31.3
16:00 1013 29.91 842 24.86 10.1 50.2 47 -0.6 31
16:05 1013 29.91 842 24.86 10.2 50.4 46 -0.7 30.7
16:10 1013 29.91 842 24.86 10.2 50.3 47 -0.7 30.8
16:15 1013 29.91 842 24.86 10.2 50.3 47 -0.6 30.9
16:20 1013 29.91 842 24.86 10.1 50.3 47 -0.7 30.8
16:25 1013 29.91 842 24.86 10.1 50.2 48 -0.5 31.2
16:30 1013 29.91 842 24.86 10.1 50.1 49 -0.2 31.6
16:35 1013 29.91 842 24.86 10 49.9 51 0.3 32.5
16:40 1013 29.91 842 24.86 9.9 49.7 52 0.4 32.8
16:45 1013 29.91 842 24.86 9.8 49.6 52 0.4 32.8
16:50 1013 29.91 842 24.86 9.6 49.3 53 0.4 32.8
16:55 1013 29.91 842 24.86 9.6 49.3 52 0.3 32.5
17:00 1013 29.91 842 24.86 9.8 49.6 51 0.3 32.5
17:05 1013 29.91 842 24.86 9.7 49.5 52 0.3 32.5
17:10 1013 29.91 842 24.86 9.7 49.5 50 -0.1 31.8
17:15 1013 29.91 842 24.86 9.7 49.5 47 -0.9 30.5
17:20 1013 29.91 842 24.86 9.8 49.7 48 -0.7 30.7
17:25 1013 29.91 842 24.86 9.8 49.6 47 -1 30.2
17:30 1013 29.91 842 24.86 9.7 49.5 47 -1 30.3
17:35 1013 29.91 842 24.86 9.6 49.3 49 -0.5 31.1
17:40 1013 29.91 842 24.86 9.4 48.8 50 -0.4 31.3
17:45 1013 29.91 842 24.86 9.2 48.6 52 0 32.1
17:50 1013 29.91 842 24.86 9.1 48.3 56 0.9 33.6
17:55 1013 29.91 842 24.86 8.8 47.9 60 1.4 34.6
18:00 1013 29.91 842 24.86 8.8 47.8 61 1.7 35.1
18:05 1013 29.91 842 24.86 8.6 47.4 61 1.6 34.8
18:10 1013 29.91 842 24.86 8.5 47.2 63 1.8 35.3
18:15 1013 29.91 842 24.86 8.4 47.1 63 1.8 35.3
18:20 1013 29.91 842 24.86 8.4 47.2 63 1.7 35.1
18:25 1013 29.91 842 24.86 8.5 47.2 62 1.6 34.9
18:30 1013 29.91 842 24.86 8.5 47.4 62 1.7 35.1
18:35 1013 29.91 842 24.86 8.7 47.7 58 0.9 33.7
18:40 1013 29.91 842 24.86 9 48.2 55 0.5 33
18:45 1013 29.91 842 24.86 9 48.2 54 0.2 32.4
18:50 1013 29.91 842 24.86 8.9 48 54 0.2 32.3
18:55 1013 29.91 842 24.86 8.8 47.8 54 0 32
19:00 1013 29.91 842 24.86 8.7 47.7 55 0.1 32.2
19:05 1013 29.91 842 24.86 8.6 47.5 54 -0 31.9
19:10 1013 29.91 842 24.86 8.5 47.4 55 0 32.1
19:15 1013 29.91 842 24.86 8.5 47.3 54 -0.2 31.7
19:20 1013 29.91 843 24.89 8.6 47.4 54 -0.2 31.7
19:25 1013 29.91 843 24.89 8.6 47.5 54 -0 31.9
19:30 1013 29.91 843 24.89 8.6 47.4 55 0 32
19:35 1013 29.91 843 24.89 8.5 47.3 56 0.2 32.3
19:40 1013 29.91 843 24.89 8.3 47 57 0.4 32.7
19:45 1014 29.94 843 24.89 8.3 46.9 57 0.3 32.5
19:50 1014 29.94 843 24.89 8.4 47.1 55 -0.2 31.7
19:55 1014 29.94 843 24.89 8.4 47 57 0.4 32.6
20:00 1014 29.94 843 24.89 8.3 46.9 58 0.6 33
20:05 1014 29.94 843 24.89 8.4 47.1 57 0.5 32.9
20:10 1014 29.94 843 24.89 8.4 47.2 58 0.6 33
20:15 1014 29.94 843 24.89 8.2 46.8 59 0.8 33.4
20:20 1014 29.94 843 24.89 8 46.4 60 0.8 33.5
20:25 1014 29.94 843 24.89 8.1 46.5 60 0.9 33.5
20:30 1014 29.94 843 24.89 8.3 46.9 58 0.6 33
20:35 1014 29.94 843 24.89 8.4 47.1 57 0.3 32.6
20:40 1014 29.94 843 24.89 8.4 47 57 0.5 32.8
20:45 1014 29.94 843 24.89 8.2 46.7 58 0.4 32.8
20:50 1014 29.94 843 24.89 8.3 46.9 58 0.4 32.7
20:55 1014 29.94 843 24.89 8.2 46.8 58 0.4 32.7
21:00 1014 29.94 843 24.89 8.1 46.6 58 0.5 32.8
21:05 1014 29.94 843 24.89 8 46.3 59 0.5 32.9
21:10 1014 29.94 843 24.89 7.9 46.2 59 0.5 32.9
21:15 1014 29.94 843 24.89 7.9 46.3 58 0.3 32.5
21:20 1014 29.94 843 24.89 8 46.3 58 0.3 32.6
21:25 1014 29.94 843 24.89 8.1 46.5 58 0.3 32.5
21:30 1014 29.94 843 24.89 8 46.4 59 0.5 32.8
21:35 1014 29.94 843 24.89 8 46.4 59 0.6 33.1
21:40 1014 29.94 843 24.89 8 46.4 60 0.7 33.3
21:45 1014 29.94 843 24.89 7.9 46.1 61 0.9 33.7
21:50 1014 29.94 843 24.89 7.7 45.8 63 1.2 34.1
21:55 1014 29.94 843 24.89 7.5 45.4 64 1.2 34.2
22:00 1014 29.94 843 24.89 7.5 45.5 62 0.8 33.4
22:05 1014 29.94 843 24.89 7.7 45.8 62 0.9 33.7
22:10 1014 29.94 843 24.89 7.6 45.8 62 0.9 33.7
22:15 1014 29.94 843 24.89 7.6 45.7 63 1.1 34
22:20 1014 29.94 843 24.89 7.4 45.2 64 1.1 33.9
22:25 1014 29.94 843 24.89 7.2 45 64 0.9 33.6
22:30 1014 29.94 843 24.89 7.2 44.9 64 0.9 33.6
22:35 1014 29.94 843 24.89 7.2 44.9 64 0.9 33.6
22:40 1014 29.94 843 24.89 7.1 44.8 64 0.8 33.5
22:45 1014 29.94 843 24.89 7.2 44.9 64 0.8 33.5
22:50 1014 29.94 843 24.89 7.3 45.1 65 1 33.9
22:55 1014 29.94 843 24.89 7.1 44.8 65 1 33.9
23:00 1014 29.94 844 24.92 7 44.6 66 1.1 33.9
23:05 1014 29.94 844 24.92 6.9 44.5 65 0.9 33.6
23:10 1014 29.94 844 24.92 7.1 44.7 66 1.1 34
23:15 1014 29.94 844 24.92 7 44.7 66 1.2 34.1
23:20 1015 29.97 844 24.92 7.1 44.7 66 1.2 34.2
23:25 1015 29.97 844 24.92 7.1 44.7 66 1.1 34
23:30 1015 29.97 844 24.92 7.1 44.7 66 1.2 34.1
23:35 1015 29.97 844 24.92 7 44.6 66 1.1 34.1
23:40 1015 29.97 844 24.92 7.2 44.9 64 0.9 33.7
23:45 1015 29.97 844 24.92 7.3 45.1 65 1.1 34
23:50 1015 29.97 844 24.92 7.2 45 65 1 33.8
23:55 1015 29.97 844 24.92 7.2 45 65 1.2 34.1
24:00 1015 29.97 844 24.92 7 44.7 65 1 33.8